createdAt,value
2022-10-23T00:00:47.000Z,16000.0
2022-10-23T00:01:48.000Z,16000.0
2022-10-23T00:02:47.000Z,16000.0
2022-10-23T00:03:47.000Z,16000.0
2022-10-23T00:04:46.000Z,16000.0
2022-10-23T00:05:47.000Z,16000.0
2022-10-23T00:06:47.000Z,16000.0
2022-10-23T00:07:47.000Z,16000.0
2022-10-23T00:08:47.000Z,16000.0
2022-10-23T00:09:46.000Z,16000.0
2022-10-23T00:10:47.000Z,16000.0
2022-10-23T00:11:47.000Z,16000.0
2022-10-23T00:12:47.000Z,16000.0
2022-10-23T00:13:47.000Z,16000.0
2022-10-23T00:14:48.000Z,16000.0
2022-10-23T00:16:47.000Z,16000.0
2022-10-23T00:17:46.000Z,14595.0
2022-10-23T00:18:47.000Z,11841.0
2022-10-23T00:19:47.000Z,11458.0
2022-10-23T00:20:47.000Z,12869.0
2022-10-23T00:21:47.000Z,13127.0
2022-10-23T00:22:46.000Z,13670.0
2022-10-23T00:23:47.000Z,15095.0
2022-10-23T00:24:47.000Z,12677.0
2022-10-23T00:25:47.000Z,14583.0
2022-10-23T00:26:47.000Z,16000.0
2022-10-23T00:27:48.000Z,16000.0
2022-10-23T00:28:47.000Z,16000.0
2022-10-23T00:29:47.000Z,16000.0
2022-10-23T00:30:46.000Z,16000.0
2022-10-23T00:31:47.000Z,16000.0
2022-10-23T00:32:47.000Z,16000.0
2022-10-23T00:33:47.000Z,16000.0
2022-10-23T00:34:47.000Z,16000.0
2022-10-23T00:35:46.000Z,14689.0
2022-10-23T00:36:47.000Z,12109.0
2022-10-23T00:37:47.000Z,10510.0
2022-10-23T00:38:47.000Z,6971.0
2022-10-23T00:39:47.000Z,6838.0
2022-10-23T00:40:48.000Z,7642.0
2022-10-23T00:41:47.000Z,7490.0
2022-10-23T00:42:47.000Z,7633.0
2022-10-23T00:43:46.000Z,8457.0
2022-10-23T00:44:47.000Z,9518.0
2022-10-23T00:45:47.000Z,10241.0
2022-10-23T00:46:46.000Z,9817.0
2022-10-23T00:47:47.000Z,9365.0
2022-10-23T00:48:47.000Z,9568.0
2022-10-23T00:49:47.000Z,9476.0
2022-10-23T00:50:47.000Z,11544.0
2022-10-23T00:51:48.000Z,12178.0
2022-10-23T00:52:47.000Z,11299.0
2022-10-23T00:53:47.000Z,10672.0
2022-10-23T00:54:46.000Z,5935.0
2022-10-23T00:55:47.000Z,4417.0
2022-10-23T00:56:47.000Z,3773.0
2022-10-23T00:57:47.000Z,4030.0
2022-10-23T00:58:47.000Z,739.0
2022-10-23T00:59:46.000Z,538.0
2022-10-23T01:00:47.000Z,1230.0
2022-10-23T01:01:47.000Z,1899.0
2022-10-23T01:02:47.000Z,1593.0
2022-10-23T01:03:47.000Z,2217.0
2022-10-23T01:04:48.000Z,3155.0
2022-10-23T01:05:47.000Z,4019.0
2022-10-23T01:06:47.000Z,4793.0
2022-10-23T01:07:46.000Z,4855.0
2022-10-23T01:08:47.000Z,2798.0
2022-10-23T01:09:47.000Z,2003.0
2022-10-23T01:10:47.000Z,2583.0
2022-10-23T01:11:47.000Z,3185.0
2022-10-23T01:12:48.000Z,4012.0
2022-10-23T01:13:47.000Z,5134.0
2022-10-23T01:14:47.000Z,5796.0
2022-10-23T01:15:47.000Z,6724.0
2022-10-23T01:16:47.000Z,8675.0
2022-10-23T01:17:47.000Z,9670.0
2022-10-23T01:18:47.000Z,11453.0
2022-10-23T01:19:47.000Z,11210.0
2022-10-23T01:20:46.000Z,12038.0
2022-10-23T01:21:47.000Z,11946.0
2022-10-23T01:22:47.000Z,12587.0
2022-10-23T01:23:47.000Z,11407.0
2022-10-23T01:24:47.000Z,9865.0
2022-10-23T01:25:46.000Z,9243.0
2022-10-23T01:26:47.000Z,7642.0
2022-10-23T01:27:47.000Z,5360.0
2022-10-23T01:28:46.000Z,4023.0
2022-10-23T01:29:47.000Z,4003.0
2022-10-23T01:30:48.000Z,3953.0
2022-10-23T01:31:47.000Z,4158.0
2022-10-23T01:32:47.000Z,4553.0
2022-10-23T01:33:46.000Z,4852.0
2022-10-23T01:34:47.000Z,5285.0
2022-10-23T01:35:47.000Z,5582.0
2022-10-23T01:36:47.000Z,6143.0
2022-10-23T01:37:47.000Z,6224.0
2022-10-23T01:38:48.000Z,6532.0
2022-10-23T01:39:47.000Z,6729.0
2022-10-23T01:40:47.000Z,7254.0
2022-10-23T01:41:47.000Z,8029.0
2022-10-23T01:42:47.000Z,8468.0
2022-10-23T01:43:47.000Z,9247.0
2022-10-23T01:44:47.000Z,9962.0
2022-10-23T01:45:47.000Z,10831.0
2022-10-23T01:46:47.000Z,11213.0
2022-10-23T01:47:47.000Z,11821.0
2022-10-23T01:48:47.000Z,13481.0
2022-10-23T01:49:46.000Z,13956.0
2022-10-23T01:50:47.000Z,11572.0
2022-10-23T01:51:47.000Z,11546.0
2022-10-23T01:52:46.000Z,10465.0
2022-10-23T01:53:47.000Z,10861.0
2022-10-23T01:54:47.000Z,10026.0
2022-10-23T01:55:47.000Z,10845.0
2022-10-23T01:56:47.000Z,11910.0
2022-10-23T01:57:46.000Z,13287.0
2022-10-23T01:58:47.000Z,14739.0
2022-10-23T01:59:47.000Z,14600.0
2022-10-23T02:00:47.000Z,16000.0
2022-10-23T02:01:47.000Z,16000.0
2022-10-23T02:02:48.000Z,16000.0
2022-10-23T02:03:47.000Z,16000.0
2022-10-23T02:04:47.000Z,16000.0
2022-10-23T02:05:46.000Z,16000.0
2022-10-23T02:06:47.000Z,15987.0
2022-10-23T02:07:47.000Z,16000.0
2022-10-23T02:08:47.000Z,16000.0
2022-10-23T02:09:47.000Z,12862.0
2022-10-23T02:10:46.000Z,10988.0
2022-10-23T02:11:47.000Z,11868.0
2022-10-23T02:12:47.000Z,11820.0
2022-10-23T02:13:47.000Z,12350.0
2022-10-23T02:14:47.000Z,11161.0
2022-10-23T02:15:48.000Z,9665.0
2022-10-23T02:16:47.000Z,7121.0
2022-10-23T02:17:47.000Z,8337.0
2022-10-23T02:18:46.000Z,9008.0
2022-10-23T02:19:47.000Z,8826.0
2022-10-23T02:20:47.000Z,9312.0
2022-10-23T02:21:47.000Z,9839.0
2022-10-23T02:22:47.000Z,10263.0
2022-10-23T02:23:46.000Z,12705.0
2022-10-23T02:24:47.000Z,14420.0
2022-10-23T02:25:47.000Z,14280.0
2022-10-23T02:26:47.000Z,14725.0
2022-10-23T02:27:47.000Z,14503.0
2022-10-23T02:28:47.000Z,15155.0
2022-10-23T02:29:47.000Z,16000.0
2022-10-23T02:30:47.000Z,14446.0
2022-10-23T02:31:46.000Z,11855.0
2022-10-23T02:32:47.000Z,11226.0
2022-10-23T02:33:47.000Z,10530.0
2022-10-23T02:34:47.000Z,9716.0
2022-10-23T02:35:47.000Z,9311.0
2022-10-23T02:36:46.000Z,9535.0
2022-10-23T02:37:47.000Z,7859.0
2022-10-23T02:38:47.000Z,8107.0
2022-10-23T02:39:46.000Z,9229.0
2022-10-23T02:40:47.000Z,9364.0
2022-10-23T02:41:48.000Z,10328.0
2022-10-23T02:42:47.000Z,11172.0
2022-10-23T02:43:47.000Z,12459.0
2022-10-23T02:44:46.000Z,15251.0
2022-10-23T02:45:47.000Z,16000.0
2022-10-23T02:46:47.000Z,16000.0
2022-10-23T02:47:46.000Z,16000.0
2022-10-23T02:48:47.000Z,16000.0
2022-10-23T02:49:47.000Z,16000.0
2022-10-23T02:50:47.000Z,16000.0
2022-10-23T02:51:47.000Z,16000.0
2022-10-23T02:52:47.000Z,16000.0
2022-10-23T02:53:47.000Z,16000.0
2022-10-23T02:54:47.000Z,16000.0
2022-10-23T02:55:46.000Z,16000.0
2022-10-23T02:56:47.000Z,16000.0
2022-10-23T02:57:47.000Z,14144.0
2022-10-23T02:58:47.000Z,11021.0
2022-10-23T02:59:47.000Z,9266.0
2022-10-23T03:00:48.000Z,4578.0
2022-10-23T03:01:47.000Z,909.0
2022-10-23T03:02:47.000Z,351.0
2022-10-23T03:03:46.000Z,365.0
2022-10-23T03:04:47.000Z,257.0
2022-10-23T03:05:47.000Z,222.0
2022-10-23T03:06:47.000Z,230.0
2022-10-23T03:07:47.000Z,216.0
2022-10-23T03:08:46.000Z,229.0
2022-10-23T03:09:47.000Z,374.0
2022-10-23T03:10:47.000Z,541.0
2022-10-23T03:11:47.000Z,1074.0
2022-10-23T03:12:47.000Z,845.0
2022-10-23T03:13:48.000Z,913.0
2022-10-23T03:14:47.000Z,964.0
2022-10-23T03:15:47.000Z,945.0
2022-10-23T03:16:46.000Z,994.0
2022-10-23T03:17:47.000Z,1467.0
2022-10-23T03:18:47.000Z,1815.0
2022-10-23T03:19:47.000Z,2102.0
2022-10-23T03:20:47.000Z,2608.0
2022-10-23T03:21:46.000Z,3070.0
2022-10-23T03:22:47.000Z,3561.0
2022-10-23T03:23:47.000Z,3744.0
2022-10-23T03:24:46.000Z,3544.0
2022-10-23T03:25:47.000Z,1733.0
2022-10-23T03:26:48.000Z,1456.0
2022-10-23T03:27:47.000Z,2189.0
2022-10-23T03:28:47.000Z,3047.0
2022-10-23T03:29:46.000Z,3672.0
2022-10-23T03:30:47.000Z,4284.0
2022-10-23T03:31:47.000Z,4819.0
2022-10-23T03:32:47.000Z,3942.0
2022-10-23T03:33:47.000Z,4210.0
2022-10-23T03:34:46.000Z,4945.0
2022-10-23T03:35:47.000Z,6113.0
2022-10-23T03:36:47.000Z,7071.0
2022-10-23T03:37:47.000Z,7811.0
2022-10-23T03:38:47.000Z,7186.0
2022-10-23T03:39:47.000Z,2672.0
2022-10-23T03:40:47.000Z,883.0
2022-10-23T03:41:47.000Z,484.0
2022-10-23T03:42:46.000Z,650.0
2022-10-23T03:43:47.000Z,858.0
2022-10-23T03:44:47.000Z,621.0
2022-10-23T03:45:47.000Z,700.0
2022-10-23T03:46:47.000Z,1104.0
2022-10-23T03:47:47.000Z,1859.0
2022-10-23T03:48:47.000Z,2552.0
2022-10-23T03:49:47.000Z,3423.0
2022-10-23T03:50:47.000Z,4338.0
2022-10-23T03:51:47.000Z,4892.0
2022-10-23T03:52:47.000Z,5321.0
2022-10-23T03:53:46.000Z,6390.0
2022-10-23T03:54:47.000Z,7928.0
2022-10-23T03:55:47.000Z,9241.0
2022-10-23T03:56:47.000Z,10926.0
2022-10-23T03:57:47.000Z,12412.0
2022-10-23T03:58:46.000Z,14680.0
2022-10-23T03:59:47.000Z,16000.0
2022-10-23T04:00:47.000Z,16000.0
2022-10-23T04:01:46.000Z,15355.0
2022-10-23T04:02:47.000Z,13038.0
2022-10-23T04:03:47.000Z,8760.0
2022-10-23T04:04:47.000Z,5104.0
2022-10-23T04:05:47.000Z,2503.0
2022-10-23T04:06:46.000Z,614.0
2022-10-23T04:07:47.000Z,882.0
2022-10-23T04:08:47.000Z,275.0
2022-10-23T04:09:47.000Z,385.0
2022-10-23T04:10:47.000Z,1033.0
2022-10-23T04:11:46.000Z,327.0
2022-10-23T04:12:47.000Z,275.0
2022-10-23T04:13:47.000Z,185.0
2022-10-23T04:14:46.000Z,240.0
2022-10-23T04:15:47.000Z,450.0
2022-10-23T04:16:47.000Z,1095.0
2022-10-23T04:17:47.000Z,1746.0
2022-10-23T04:18:47.000Z,2421.0
2022-10-23T04:19:46.000Z,3295.0
2022-10-23T04:20:47.000Z,4265.0
2022-10-23T04:21:47.000Z,5420.0
2022-10-23T04:22:47.000Z,6343.0
2022-10-23T04:23:47.000Z,6829.0
2022-10-23T04:24:46.000Z,7211.0
2022-10-23T04:25:47.000Z,8135.0
2022-10-23T04:26:47.000Z,8133.0
2022-10-23T04:27:46.000Z,9293.0
2022-10-23T04:28:47.000Z,10942.0
2022-10-23T04:29:47.000Z,11391.0
2022-10-23T04:30:47.000Z,7572.0
2022-10-23T04:31:47.000Z,3224.0
2022-10-23T04:32:46.000Z,4130.0
2022-10-23T04:33:47.000Z,3809.0
2022-10-23T04:34:47.000Z,4677.0
2022-10-23T04:35:47.000Z,5637.0
2022-10-23T04:36:47.000Z,6759.0
2022-10-23T04:37:48.000Z,8283.0
2022-10-23T04:38:47.000Z,9193.0
2022-10-23T04:39:47.000Z,10552.0
2022-10-23T04:40:46.000Z,5893.0
2022-10-23T04:41:47.000Z,7010.0
2022-10-23T04:42:47.000Z,7216.0
2022-10-23T04:43:47.000Z,7786.0
2022-10-23T04:44:47.000Z,7348.0
2022-10-23T04:45:46.000Z,6030.0
2022-10-23T04:46:47.000Z,5831.0
2022-10-23T04:47:47.000Z,5962.0
2022-10-23T04:48:46.000Z,6208.0
2022-10-23T04:49:47.000Z,6727.0
2022-10-23T04:50:47.000Z,6213.0
2022-10-23T04:51:46.000Z,4237.0
2022-10-23T04:52:47.000Z,4850.0
2022-10-23T04:53:47.000Z,5464.0
2022-10-23T04:54:47.000Z,6385.0
2022-10-23T04:55:47.000Z,2622.0
2022-10-23T04:56:46.000Z,3457.0
2022-10-23T04:57:47.000Z,4182.0
2022-10-23T04:58:47.000Z,5215.0
2022-10-23T04:59:47.000Z,5959.0
2022-10-23T05:00:47.000Z,6730.0
2022-10-23T05:01:46.000Z,6339.0
2022-10-23T05:02:47.000Z,6723.0
2022-10-23T05:03:47.000Z,6930.0
2022-10-23T05:04:46.000Z,6984.0
2022-10-23T05:05:47.000Z,7103.0
2022-10-23T05:06:47.000Z,6940.0
2022-10-23T05:07:47.000Z,6756.0
2022-10-23T05:08:47.000Z,6247.0
2022-10-23T05:09:46.000Z,5875.0
2022-10-23T05:10:47.000Z,2326.0
2022-10-23T05:11:47.000Z,2797.0
2022-10-23T05:12:47.000Z,3327.0
2022-10-23T05:13:47.000Z,4018.0
2022-10-23T05:14:48.000Z,2982.0
2022-10-23T05:15:47.000Z,2319.0
2022-10-23T05:16:47.000Z,849.0
2022-10-23T05:17:46.000Z,379.0
2022-10-23T05:18:47.000Z,736.0
2022-10-23T05:19:47.000Z,1392.0
2022-10-23T05:20:47.000Z,2147.0
2022-10-23T05:21:47.000Z,2925.0
2022-10-23T05:22:46.000Z,3456.0
2022-10-23T05:23:47.000Z,2908.0
2022-10-23T05:24:47.000Z,2574.0
2022-10-23T05:25:47.000Z,2568.0
2022-10-23T05:26:47.000Z,3039.0
2022-10-23T05:27:46.000Z,3666.0
2022-10-23T05:28:47.000Z,4111.0
2022-10-23T05:29:47.000Z,4920.0
2022-10-23T05:30:46.000Z,5301.0
2022-10-23T05:31:47.000Z,6104.0
2022-10-23T05:32:47.000Z,6951.0
2022-10-23T05:33:47.000Z,7449.0
2022-10-23T05:34:47.000Z,8780.0
2022-10-23T05:35:46.000Z,10374.0
2022-10-23T05:36:47.000Z,12020.0
2022-10-23T05:37:47.000Z,12944.0
2022-10-23T05:38:47.000Z,12395.0
2022-10-23T05:39:47.000Z,12828.0
2022-10-23T05:40:47.000Z,12953.0
2022-10-23T05:41:47.000Z,14256.0
2022-10-23T05:42:47.000Z,15261.0
2022-10-23T05:43:46.000Z,16000.0
2022-10-23T05:44:47.000Z,16000.0
2022-10-23T05:45:47.000Z,16000.0
2022-10-23T05:46:46.000Z,16000.0
2022-10-23T05:47:47.000Z,16000.0
2022-10-23T05:48:47.000Z,16000.0
2022-10-23T05:49:47.000Z,16000.0
2022-10-23T05:50:47.000Z,16000.0
2022-10-23T05:51:46.000Z,16000.0
2022-10-23T05:52:47.000Z,16000.0
2022-10-23T05:53:47.000Z,16000.0
2022-10-23T05:54:46.000Z,16000.0
2022-10-23T05:55:47.000Z,16000.0
2022-10-23T05:56:47.000Z,16000.0
2022-10-23T05:57:47.000Z,16000.0
2022-10-23T05:58:47.000Z,16000.0
2022-10-23T05:59:46.000Z,16000.0
2022-10-23T06:00:47.000Z,16000.0
2022-10-23T06:01:47.000Z,16000.0
2022-10-23T06:02:46.000Z,16000.0
2022-10-23T06:03:47.000Z,16000.0
2022-10-23T06:04:48.000Z,16000.0
2022-10-23T06:05:47.000Z,16000.0
2022-10-23T06:06:47.000Z,16000.0
2022-10-23T06:07:46.000Z,16000.0
2022-10-23T06:08:47.000Z,16000.0
2022-10-23T06:09:47.000Z,16000.0
2022-10-23T06:10:47.000Z,16000.0
2022-10-23T06:11:47.000Z,16000.0
2022-10-23T06:12:46.000Z,16000.0
2022-10-23T06:13:47.000Z,16000.0
2022-10-23T06:14:47.000Z,16000.0
2022-10-23T06:15:47.000Z,16000.0
2022-10-23T06:16:47.000Z,16000.0
2022-10-23T06:17:47.000Z,16000.0
2022-10-23T06:18:47.000Z,16000.0
2022-10-23T06:19:47.000Z,16000.0
2022-10-23T06:20:46.000Z,16000.0
2022-10-23T06:21:47.000Z,16000.0
2022-10-23T06:22:47.000Z,16000.0
2022-10-23T06:23:47.000Z,16000.0
2022-10-23T06:24:47.000Z,16000.0
2022-10-23T06:25:46.000Z,16000.0
2022-10-23T06:26:47.000Z,16000.0
2022-10-23T06:27:47.000Z,16000.0
2022-10-23T06:28:46.000Z,16000.0
2022-10-23T06:29:47.000Z,16000.0
2022-10-23T06:30:47.000Z,16000.0
2022-10-23T06:31:47.000Z,16000.0
2022-10-23T06:32:47.000Z,16000.0
2022-10-23T06:33:46.000Z,16000.0
2022-10-23T06:34:47.000Z,16000.0
2022-10-23T06:35:47.000Z,16000.0
2022-10-23T06:36:47.000Z,16000.0
2022-10-23T06:37:47.000Z,16000.0
2022-10-23T06:38:46.000Z,16000.0
2022-10-23T06:39:47.000Z,16000.0
2022-10-23T06:40:47.000Z,16000.0
2022-10-23T06:41:46.000Z,16000.0
2022-10-23T06:42:47.000Z,16000.0
2022-10-23T06:43:47.000Z,16000.0
2022-10-23T06:44:47.000Z,16000.0
2022-10-23T06:45:47.000Z,16000.0
2022-10-23T06:46:47.000Z,16000.0
2022-10-23T06:47:47.000Z,16000.0
2022-10-23T06:48:47.000Z,16000.0
2022-10-23T06:49:46.000Z,16000.0
2022-10-23T06:50:47.000Z,16000.0
2022-10-23T06:51:47.000Z,16000.0
2022-10-23T06:52:46.000Z,16000.0
2022-10-23T06:53:47.000Z,16000.0
2022-10-23T06:54:47.000Z,16000.0
2022-10-23T06:55:47.000Z,16000.0
2022-10-23T06:56:47.000Z,16000.0
2022-10-23T06:57:46.000Z,16000.0
2022-10-23T06:58:47.000Z,16000.0
2022-10-23T06:59:47.000Z,16000.0
2022-10-23T07:00:47.000Z,16000.0
2022-10-23T07:01:47.000Z,16000.0
2022-10-23T07:02:47.000Z,16000.0
2022-10-23T07:03:47.000Z,16000.0
2022-10-23T07:04:47.000Z,16000.0
2022-10-23T07:05:46.000Z,16000.0
2022-10-23T07:06:47.000Z,16000.0
2022-10-23T07:07:47.000Z,16000.0
2022-10-23T07:08:47.000Z,16000.0
2022-10-23T07:09:47.000Z,16000.0
2022-10-23T07:10:46.000Z,16000.0
2022-10-23T07:11:47.000Z,16000.0
2022-10-23T07:12:47.000Z,16000.0
2022-10-23T07:13:46.000Z,16000.0
2022-10-23T07:14:47.000Z,16000.0
2022-10-23T07:15:46.000Z,16000.0
2022-10-23T07:16:47.000Z,16000.0
2022-10-23T07:17:47.000Z,16000.0
2022-10-23T07:18:46.000Z,16000.0
2022-10-23T07:19:47.000Z,16000.0
2022-10-23T07:20:47.000Z,16000.0
2022-10-23T07:21:47.000Z,16000.0
2022-10-23T07:22:47.000Z,16000.0
2022-10-23T07:23:46.000Z,16000.0
2022-10-23T07:24:47.000Z,16000.0
2022-10-23T07:25:47.000Z,16000.0
2022-10-23T07:26:47.000Z,16000.0
2022-10-23T07:27:47.000Z,16000.0
2022-10-23T07:28:47.000Z,16000.0
2022-10-23T07:29:47.000Z,16000.0
2022-10-23T07:30:47.000Z,16000.0
2022-10-23T07:31:46.000Z,16000.0
2022-10-23T07:32:47.000Z,16000.0
2022-10-23T07:33:47.000Z,16000.0
2022-10-23T07:34:47.000Z,16000.0
2022-10-23T07:35:47.000Z,16000.0
2022-10-23T07:36:46.000Z,16000.0
2022-10-23T07:37:47.000Z,16000.0
2022-10-23T07:38:47.000Z,16000.0
2022-10-23T07:39:46.000Z,16000.0
2022-10-23T07:40:47.000Z,16000.0
2022-10-23T07:41:47.000Z,16000.0
2022-10-23T07:42:47.000Z,16000.0
2022-10-23T07:43:47.000Z,16000.0
2022-10-23T07:44:46.000Z,16000.0
2022-10-23T07:45:47.000Z,16000.0
2022-10-23T07:46:47.000Z,16000.0
2022-10-23T07:47:46.000Z,16000.0
2022-10-23T07:48:47.000Z,16000.0
2022-10-23T07:49:47.000Z,16000.0
2022-10-23T07:50:47.000Z,16000.0
2022-10-23T07:51:47.000Z,16000.0
2022-10-23T07:52:47.000Z,16000.0
2022-10-23T07:53:47.000Z,16000.0
2022-10-23T07:54:47.000Z,16000.0
2022-10-23T07:55:46.000Z,16000.0
2022-10-23T07:56:47.000Z,16000.0
2022-10-23T07:57:47.000Z,16000.0
2022-10-23T07:58:47.000Z,16000.0
2022-10-23T07:59:47.000Z,16000.0
2022-10-23T08:00:46.000Z,16000.0
2022-10-23T08:01:47.000Z,16000.0
2022-10-23T08:02:47.000Z,16000.0
2022-10-23T08:03:46.000Z,16000.0
2022-10-23T08:04:47.000Z,16000.0
2022-10-23T08:05:47.000Z,16000.0
2022-10-23T08:06:47.000Z,16000.0
2022-10-23T08:07:47.000Z,16000.0
2022-10-23T08:08:46.000Z,16000.0
2022-10-23T08:09:47.000Z,16000.0
2022-10-23T08:10:47.000Z,16000.0
2022-10-23T08:11:47.000Z,16000.0
2022-10-23T08:12:47.000Z,16000.0
2022-10-23T08:13:46.000Z,16000.0
2022-10-23T08:14:47.000Z,16000.0
2022-10-23T08:15:47.000Z,16000.0
2022-10-23T08:16:46.000Z,16000.0
2022-10-23T08:17:47.000Z,16000.0
2022-10-23T08:18:47.000Z,16000.0
2022-10-23T08:19:47.000Z,16000.0
2022-10-23T08:20:47.000Z,16000.0
2022-10-23T08:21:46.000Z,16000.0
2022-10-23T08:22:47.000Z,16000.0
2022-10-23T08:23:47.000Z,16000.0
2022-10-23T08:24:46.000Z,16000.0
2022-10-23T08:25:47.000Z,16000.0
2022-10-23T08:26:46.000Z,16000.0
2022-10-23T08:27:47.000Z,16000.0
2022-10-23T08:28:47.000Z,16000.0
2022-10-23T08:29:46.000Z,16000.0
2022-10-23T08:30:47.000Z,16000.0
2022-10-23T08:31:47.000Z,16000.0
2022-10-23T08:32:47.000Z,16000.0
2022-10-23T08:33:47.000Z,16000.0
2022-10-23T08:34:46.000Z,16000.0
2022-10-23T08:35:47.000Z,16000.0
2022-10-23T08:36:47.000Z,16000.0
2022-10-23T08:37:47.000Z,16000.0
2022-10-23T08:38:47.000Z,16000.0
2022-10-23T08:39:47.000Z,16000.0
2022-10-23T08:40:47.000Z,16000.0
2022-10-23T08:41:47.000Z,16000.0
2022-10-23T08:42:46.000Z,16000.0
2022-10-23T08:43:47.000Z,16000.0
2022-10-23T08:44:47.000Z,16000.0
2022-10-23T08:45:47.000Z,16000.0
2022-10-23T08:46:47.000Z,16000.0
2022-10-23T08:47:47.000Z,16000.0
2022-10-23T08:48:47.000Z,16000.0
2022-10-23T08:49:47.000Z,16000.0
2022-10-23T08:50:46.000Z,16000.0
2022-10-23T08:51:47.000Z,16000.0
2022-10-23T08:52:47.000Z,16000.0
2022-10-23T08:53:46.000Z,16000.0
2022-10-23T08:54:47.000Z,16000.0
2022-10-23T08:55:47.000Z,16000.0
2022-10-23T08:56:47.000Z,16000.0
2022-10-23T08:57:47.000Z,16000.0
2022-10-23T08:59:47.000Z,16000.0
2022-10-23T09:00:47.000Z,16000.0
2022-10-23T09:01:46.000Z,16000.0
2022-10-23T09:02:47.000Z,16000.0
2022-10-23T09:03:46.000Z,16000.0
2022-10-23T09:04:47.000Z,16000.0
2022-10-23T09:05:47.000Z,16000.0
2022-10-23T09:06:46.000Z,16000.0
2022-10-23T09:07:47.000Z,16000.0
2022-10-23T09:08:47.000Z,16000.0
2022-10-23T09:09:47.000Z,16000.0
2022-10-23T09:10:47.000Z,16000.0
2022-10-23T09:11:46.000Z,16000.0
2022-10-23T09:12:47.000Z,16000.0
2022-10-23T09:13:47.000Z,16000.0
2022-10-23T09:14:46.000Z,16000.0
2022-10-23T09:15:47.000Z,16000.0
2022-10-23T09:16:47.000Z,16000.0
2022-10-23T09:17:47.000Z,16000.0
2022-10-23T09:18:47.000Z,16000.0
2022-10-23T09:19:46.000Z,16000.0
2022-10-23T09:20:47.000Z,16000.0
2022-10-23T09:21:47.000Z,16000.0
2022-10-23T09:22:47.000Z,16000.0
2022-10-23T09:23:47.000Z,16000.0
2022-10-23T09:24:46.000Z,16000.0
2022-10-23T09:25:47.000Z,16000.0
2022-10-23T09:26:47.000Z,16000.0
2022-10-23T09:27:46.000Z,16000.0
2022-10-23T09:28:47.000Z,16000.0
2022-10-23T09:29:46.000Z,16000.0
2022-10-23T09:30:47.000Z,16000.0
2022-10-23T09:31:47.000Z,16000.0
2022-10-23T09:32:46.000Z,16000.0
2022-10-23T09:33:47.000Z,16000.0
2022-10-23T09:34:47.000Z,16000.0
2022-10-23T09:35:47.000Z,16000.0
2022-10-23T09:36:47.000Z,16000.0
2022-10-23T09:37:46.000Z,16000.0
2022-10-23T09:38:47.000Z,16000.0
2022-10-23T09:39:47.000Z,16000.0
2022-10-23T09:40:46.000Z,16000.0
2022-10-23T09:41:47.000Z,16000.0
2022-10-23T09:42:47.000Z,16000.0
2022-10-23T09:43:47.000Z,16000.0
2022-10-23T09:44:47.000Z,16000.0
2022-10-23T09:45:46.000Z,16000.0
2022-10-23T09:46:47.000Z,16000.0
2022-10-23T09:47:47.000Z,16000.0
2022-10-23T09:48:46.000Z,16000.0
2022-10-23T09:49:47.000Z,16000.0
2022-10-23T09:50:47.000Z,16000.0
2022-10-23T09:51:47.000Z,16000.0
2022-10-23T09:52:47.000Z,16000.0
2022-10-23T09:53:46.000Z,16000.0
2022-10-23T09:54:47.000Z,16000.0
2022-10-23T09:55:47.000Z,16000.0
2022-10-23T09:56:46.000Z,16000.0
2022-10-23T09:57:47.000Z,16000.0
2022-10-23T09:58:47.000Z,16000.0
2022-10-23T09:59:47.000Z,16000.0
2022-10-23T10:00:47.000Z,16000.0
2022-10-23T10:01:46.000Z,16000.0
2022-10-23T10:02:47.000Z,16000.0
2022-10-23T10:03:47.000Z,16000.0
2022-10-23T10:04:46.000Z,16000.0
2022-10-23T10:05:47.000Z,16000.0
2022-10-23T10:06:46.000Z,16000.0
2022-10-23T10:07:47.000Z,16000.0
2022-10-23T10:08:47.000Z,16000.0
2022-10-23T10:09:46.000Z,16000.0
2022-10-23T10:10:47.000Z,16000.0
2022-10-23T10:11:47.000Z,16000.0
2022-10-23T10:12:47.000Z,16000.0
2022-10-23T10:13:47.000Z,16000.0
2022-10-23T10:14:46.000Z,16000.0
2022-10-23T10:15:47.000Z,16000.0
2022-10-23T10:16:47.000Z,16000.0
2022-10-23T10:17:46.000Z,16000.0
2022-10-23T10:18:47.000Z,16000.0
2022-10-23T10:19:47.000Z,16000.0
2022-10-23T10:20:47.000Z,16000.0
2022-10-23T10:21:47.000Z,16000.0
2022-10-23T10:22:46.000Z,16000.0
2022-10-23T10:23:47.000Z,16000.0
2022-10-23T10:24:47.000Z,16000.0
2022-10-23T10:25:47.000Z,16000.0
2022-10-23T10:26:47.000Z,16000.0
2022-10-23T10:27:46.000Z,16000.0
2022-10-23T10:28:47.000Z,16000.0
2022-10-23T10:29:47.000Z,16000.0
2022-10-23T10:30:46.000Z,16000.0
2022-10-23T10:31:47.000Z,16000.0
2022-10-23T10:32:46.000Z,16000.0
2022-10-23T10:33:47.000Z,16000.0
2022-10-23T10:34:47.000Z,16000.0
2022-10-23T10:35:46.000Z,16000.0
2022-10-23T10:36:47.000Z,16000.0
2022-10-23T10:37:47.000Z,16000.0
2022-10-23T10:38:47.000Z,16000.0
2022-10-23T10:39:47.000Z,16000.0
2022-10-23T10:40:46.000Z,16000.0
2022-10-23T10:41:47.000Z,16000.0
2022-10-23T10:42:47.000Z,16000.0
2022-10-23T10:43:46.000Z,16000.0
2022-10-23T10:44:47.000Z,16000.0
2022-10-23T10:45:47.000Z,16000.0
2022-10-23T10:46:46.000Z,16000.0
2022-10-23T10:47:47.000Z,16000.0
2022-10-23T10:48:47.000Z,16000.0
2022-10-23T10:49:47.000Z,16000.0
2022-10-23T10:50:47.000Z,16000.0
2022-10-23T10:51:46.000Z,16000.0
2022-10-23T10:52:47.000Z,16000.0
2022-10-23T10:53:47.000Z,16000.0
2022-10-23T10:54:46.000Z,16000.0
2022-10-23T10:55:47.000Z,16000.0
2022-10-23T10:56:47.000Z,16000.0
2022-10-23T10:57:47.000Z,16000.0
2022-10-23T10:58:47.000Z,16000.0
2022-10-23T10:59:46.000Z,16000.0
2022-10-23T11:00:47.000Z,16000.0
2022-10-23T11:01:47.000Z,16000.0
2022-10-23T11:02:47.000Z,16000.0
2022-10-23T11:03:47.000Z,16000.0
2022-10-23T11:04:46.000Z,16000.0
2022-10-23T11:05:47.000Z,16000.0
2022-10-23T11:06:47.000Z,16000.0
2022-10-23T11:07:46.000Z,16000.0
2022-10-23T11:08:47.000Z,16000.0
2022-10-23T11:09:46.000Z,16000.0
2022-10-23T11:10:47.000Z,16000.0
2022-10-23T11:11:47.000Z,16000.0
2022-10-23T11:12:46.000Z,16000.0
2022-10-23T11:13:47.000Z,16000.0
2022-10-23T11:14:47.000Z,16000.0
2022-10-23T11:16:47.000Z,16000.0
2022-10-23T11:17:46.000Z,16000.0
2022-10-23T11:18:47.000Z,16000.0
2022-10-23T11:19:47.000Z,16000.0
2022-10-23T11:20:46.000Z,16000.0
2022-10-23T11:21:47.000Z,16000.0
2022-10-23T11:22:47.000Z,16000.0
2022-10-23T11:23:47.000Z,16000.0
2022-10-23T11:24:47.000Z,16000.0
2022-10-23T11:25:46.000Z,16000.0
2022-10-23T11:26:47.000Z,16000.0
2022-10-23T11:27:47.000Z,16000.0
2022-10-23T11:28:46.000Z,16000.0
2022-10-23T11:29:47.000Z,16000.0
2022-10-23T11:30:46.000Z,16000.0
2022-10-23T11:31:47.000Z,16000.0
2022-10-23T11:32:47.000Z,16000.0
2022-10-23T11:33:46.000Z,16000.0
2022-10-23T11:34:47.000Z,16000.0
2022-10-23T11:35:47.000Z,16000.0
2022-10-23T11:36:47.000Z,16000.0
2022-10-23T11:37:47.000Z,16000.0
2022-10-23T11:38:46.000Z,16000.0
2022-10-23T11:39:47.000Z,16000.0
2022-10-23T11:40:47.000Z,16000.0
2022-10-23T11:41:47.000Z,16000.0
2022-10-23T11:42:47.000Z,16000.0
2022-10-23T11:43:46.000Z,16000.0
2022-10-23T11:44:47.000Z,16000.0
2022-10-23T11:45:47.000Z,16000.0
2022-10-23T11:46:46.000Z,16000.0
2022-10-23T11:47:47.000Z,16000.0
2022-10-23T11:48:47.000Z,16000.0
2022-10-23T11:49:46.000Z,16000.0
2022-10-23T11:50:47.000Z,16000.0
2022-10-23T11:51:47.000Z,16000.0
2022-10-23T11:52:46.000Z,16000.0
2022-10-23T11:53:47.000Z,16000.0
2022-10-23T11:54:46.000Z,16000.0
2022-10-23T11:55:47.000Z,16000.0
2022-10-23T11:56:47.000Z,16000.0
2022-10-23T11:57:46.000Z,16000.0
2022-10-23T11:58:47.000Z,16000.0
2022-10-23T11:59:47.000Z,16000.0
2022-10-23T12:00:47.000Z,16000.0
2022-10-23T12:01:47.000Z,16000.0
2022-10-23T12:02:46.000Z,16000.0
2022-10-23T12:03:47.000Z,16000.0
2022-10-23T12:04:47.000Z,16000.0
2022-10-23T12:05:46.000Z,16000.0
2022-10-23T12:06:47.000Z,16000.0
2022-10-23T12:07:46.000Z,16000.0
2022-10-23T12:08:47.000Z,16000.0
2022-10-23T12:09:47.000Z,16000.0
2022-10-23T12:10:46.000Z,16000.0
2022-10-23T12:11:47.000Z,16000.0
2022-10-23T12:12:47.000Z,16000.0
2022-10-23T12:13:47.000Z,16000.0
2022-10-23T12:14:47.000Z,16000.0
2022-10-23T12:15:46.000Z,16000.0
2022-10-23T12:16:47.000Z,16000.0